createdAt,value
2023-05-14T00:01:46.727Z,100446.52
2023-05-14T00:06:50.322Z,100448.92
2023-05-14T00:11:53.134Z,100450.20
2023-05-14T00:16:56.474Z,100448.01
2023-05-14T00:21:58.705Z,100445.11
2023-05-14T00:27:01.561Z,100444.55
2023-05-14T00:32:04.583Z,100440.01
2023-05-14T00:37:07.461Z,100439.86
2023-05-14T00:42:10.851Z,100432.45
2023-05-14T00:47:15.960Z,100430.74
2023-05-14T00:52:20.555Z,100432.84
2023-05-14T00:57:23.400Z,100431.64
2023-05-14T01:02:25.926Z,100435.07
2023-05-14T01:07:55.348Z,100436.08
2023-05-14T01:13:18.627Z,100437.50
2023-05-14T01:18:23.355Z,100436.54
2023-05-14T01:23:25.683Z,100434.55
2023-05-14T01:28:35.736Z,100425.66
2023-05-14T01:33:42.445Z,100418.63
2023-05-14T01:38:48.242Z,100412.64
2023-05-14T01:43:51.668Z,100408.02
2023-05-14T01:48:54.986Z,100404.24
2023-05-14T01:53:58.078Z,100399.08
2023-05-14T01:59:02.153Z,100397.58
2023-05-14T02:04:05.682Z,100397.45
2023-05-14T02:09:09.074Z,100392.34
2023-05-14T02:14:11.971Z,100395.19
2023-05-14T02:19:15.086Z,100388.04
2023-05-14T02:24:18.122Z,100398.14
2023-05-14T02:29:22.510Z,100389.75
2023-05-14T02:34:26.369Z,100392.05
2023-05-14T02:39:29.702Z,100388.52
2023-05-14T02:44:33.042Z,100380.97
2023-05-14T02:49:36.268Z,100376.38
2023-05-14T02:54:38.120Z,100376.83
2023-05-14T02:59:39.857Z,100371.75
2023-05-14T03:04:43.372Z,100373.85
2023-05-14T03:09:47.555Z,100371.39
2023-05-14T03:14:51.161Z,100369.88
2023-05-14T03:19:54.507Z,100365.74
2023-05-14T03:24:57.888Z,100362.23
2023-05-14T03:30:01.312Z,100360.40
2023-05-14T03:35:05.759Z,100359.41
2023-05-14T03:40:09.609Z,100361.36
2023-05-14T03:45:11.652Z,100361.09
2023-05-14T03:50:14.477Z,100354.27
2023-05-14T03:55:19.162Z,100351.73
2023-05-14T04:00:21.932Z,100354.39
2023-05-14T04:05:25.660Z,100350.29
2023-05-14T04:10:29.780Z,100346.63
2023-05-14T04:15:33.329Z,100345.18
2023-05-14T04:20:37.175Z,100344.11
2023-05-14T04:25:40.583Z,100348.38
2023-05-14T04:30:45.553Z,100351.63
2023-05-14T04:35:48.607Z,100347.75
2023-05-14T04:40:52.661Z,100344.14
2023-05-14T04:45:56.328Z,100344.55
2023-05-14T04:51:00.829Z,100340.67
2023-05-14T04:56:04.206Z,100344.11
2023-05-14T05:01:08.364Z,100344.48
2023-05-14T05:06:12.042Z,100340.81
2023-05-14T05:11:16.918Z,100335.88
2023-05-14T05:16:19.577Z,100329.68
2023-05-14T05:21:23.324Z,100333.42
2023-05-14T05:26:27.265Z,100334.98
2023-05-14T05:31:31.078Z,100334.81
2023-05-14T05:36:34.426Z,100333.27
2023-05-14T05:41:36.580Z,100328.69
2023-05-14T05:46:39.398Z,100328.52
2023-05-14T05:51:42.597Z,100328.75
2023-05-14T05:56:45.315Z,100319.95
2023-05-14T06:01:47.727Z,100314.83
2023-05-14T06:06:49.910Z,100311.38
2023-05-14T06:11:53.687Z,100313.75
2023-05-14T06:16:57.053Z,100308.09
2023-05-14T06:21:59.299Z,100311.24
2023-05-14T06:27:01.145Z,100316.36
2023-05-14T06:32:06.005Z,100319.97
2023-05-14T06:37:10.998Z,100324.10
2023-05-14T06:42:14.484Z,100321.39
2023-05-14T06:47:20.638Z,100317.44
2023-05-14T06:52:22.942Z,100308.41
2023-05-14T06:57:25.500Z,100297.67
2023-05-14T07:02:28.854Z,100287.85
2023-05-14T07:07:31.559Z,100284.27
2023-05-14T07:12:34.801Z,100279.81
2023-05-14T07:17:37.790Z,100280.02
2023-05-14T07:22:41.375Z,100275.34
2023-05-14T07:27:44.672Z,100268.88
2023-05-14T07:32:47.823Z,100265.41
2023-05-14T07:37:52.005Z,100264.13
2023-05-14T07:42:55.696Z,100253.69
2023-05-14T07:47:58.872Z,100255.15
2023-05-14T07:53:02.173Z,100246.71
2023-05-14T07:58:04.720Z,100253.45
2023-05-14T08:03:07.983Z,100256.25
2023-05-14T08:08:12.379Z,100255.80
2023-05-14T08:13:15.883Z,100251.63
2023-05-14T08:18:18.194Z,100252.13
2023-05-14T08:23:22.309Z,100243.74
2023-05-14T08:28:25.284Z,100237.38
2023-05-14T08:33:29.051Z,100239.55
2023-05-14T08:38:31.641Z,100239.21
2023-05-14T08:43:58.779Z,100230.27
2023-05-14T08:49:25.703Z,100226.32
2023-05-14T08:54:29.911Z,100223.71
2023-05-14T08:59:33.037Z,100228.00
2023-05-14T09:04:37.029Z,100223.86
2023-05-14T09:09:41.034Z,100216.51
2023-05-14T09:14:45.426Z,100212.13
2023-05-14T09:19:53.613Z,100207.53
2023-05-14T09:25:11.700Z,100202.64
2023-05-14T09:30:14.245Z,100190.38
2023-05-14T09:35:25.777Z,100182.45
2023-05-14T09:40:29.117Z,100176.13
2023-05-14T09:45:32.242Z,100170.73
2023-05-14T09:50:42.140Z,100163.56
2023-05-14T09:55:46.017Z,100156.11
2023-05-14T10:00:52.316Z,100144.07
2023-05-14T10:06:00.136Z,100136.06
2023-05-14T10:11:08.192Z,100141.27
2023-05-14T10:16:22.576Z,100132.35
2023-05-14T10:21:26.868Z,100121.44
2023-05-14T10:26:30.432Z,100112.11
2023-05-14T10:31:54.118Z,100106.25
2023-05-14T10:37:04.606Z,100097.52
2023-05-14T10:42:08.442Z,100091.95
2023-05-14T10:47:11.448Z,100093.07
2023-05-14T10:52:16.825Z,100085.48
2023-05-14T10:57:21.500Z,100076.37
2023-05-14T11:02:29.913Z,100071.04
2023-05-14T11:07:36.494Z,100055.10
2023-05-14T11:12:40.772Z,100050.81
2023-05-14T11:17:46.403Z,100065.45
2023-05-14T11:22:51.630Z,100058.61
2023-05-14T11:27:58.184Z,100041.38
2023-05-14T11:33:02.020Z,100038.23
2023-05-14T11:38:05.696Z,100038.11
2023-05-14T11:43:18.690Z,100033.21
2023-05-14T11:48:24.276Z,100031.33
2023-05-14T11:53:30.879Z,100029.90
2023-05-14T11:58:34.568Z,100019.73
2023-05-14T12:03:37.142Z,100018.10
2023-05-14T12:08:42.259Z,100019.05
2023-05-14T12:13:46.016Z,100026.88
2023-05-14T12:18:49.549Z,100020.23
2023-05-14T12:24:00.474Z,100006.45
2023-05-14T12:29:03.746Z,99999.38
2023-05-14T12:34:07.583Z,99983.45
2023-05-14T12:39:13.370Z,99990.03
2023-05-14T12:44:16.581Z,99983.39
2023-05-14T12:49:19.570Z,99981.58
2023-05-14T12:54:21.890Z,99982.23
2023-05-14T12:59:24.382Z,99977.70
2023-05-14T13:04:27.303Z,99970.63
2023-05-14T13:09:30.933Z,99965.71
2023-05-14T13:14:34.230Z,99958.15
2023-05-14T13:19:39.201Z,99965.48
2023-05-14T13:24:41.773Z,99953.41
2023-05-14T13:29:45.174Z,99942.30
2023-05-14T13:34:48.771Z,99937.80
2023-05-14T13:39:54.506Z,99933.17
2023-05-14T13:45:00.059Z,99925.77
2023-05-14T13:50:03.992Z,99918.17
2023-05-14T13:55:08.651Z,99923.13
2023-05-14T14:00:15.657Z,99915.23
2023-05-14T14:05:19.430Z,99909.45
2023-05-14T14:10:22.969Z,99906.40
2023-05-14T14:15:26.506Z,99905.17
2023-05-14T14:20:31.061Z,99898.74
2023-05-14T14:25:36.908Z,99894.13
2023-05-14T14:30:47.860Z,99891.39
2023-05-14T14:35:52.496Z,99889.16
2023-05-14T14:40:56.080Z,99886.33
2023-05-14T14:45:59.923Z,99881.23
2023-05-14T14:51:06.332Z,99874.91
2023-05-14T14:56:11.897Z,99869.13
2023-05-14T15:01:17.189Z,99865.42
2023-05-14T15:11:51.272Z,99853.23
2023-05-14T15:16:58.124Z,99843.48
2023-05-14T15:22:03.490Z,99843.98
2023-05-14T15:27:08.042Z,99839.52
2023-05-14T15:32:13.561Z,99838.66
2023-05-14T15:37:18.721Z,99838.17
2023-05-14T15:42:24.430Z,99836.08
2023-05-14T15:47:28.351Z,99833.34
2023-05-14T15:52:32.270Z,99831.98
2023-05-14T15:57:37.525Z,99823.30
2023-05-14T16:02:43.261Z,99812.46
2023-05-14T16:07:49.890Z,99804.08
2023-05-14T16:12:56.440Z,99793.17
2023-05-14T16:18:02.364Z,99783.17
2023-05-14T16:23:07.107Z,99781.91
2023-05-14T16:28:12.870Z,99776.69
2023-05-14T16:33:25.718Z,99768.37
2023-05-14T16:38:35.520Z,99762.23
2023-05-14T16:43:43.946Z,99767.86
2023-05-14T16:48:52.157Z,99773.27
2023-05-14T16:53:56.681Z,99763.35
2023-05-14T16:59:02.578Z,99762.94
2023-05-14T17:04:10.576Z,99765.24
2023-05-14T17:09:16.670Z,99758.37
2023-05-14T17:14:21.842Z,99756.98
2023-05-14T17:19:27.794Z,99756.98
2023-05-14T17:24:36.474Z,99753.01
2023-05-14T17:29:41.897Z,99746.45
2023-05-14T17:34:47.370Z,99745.86
2023-05-14T17:39:55.820Z,99738.77
2023-05-14T17:45:00.497Z,99736.73
2023-05-14T17:50:05.898Z,99745.40
2023-05-14T17:55:10.035Z,99742.23
2023-05-14T18:00:15.239Z,99739.27
2023-05-14T18:05:20.570Z,99738.66
2023-05-14T18:10:25.696Z,99736.82
2023-05-14T18:15:33.893Z,99736.90
2023-05-14T18:20:39.066Z,99737.67
2023-05-14T18:25:42.910Z,99741.55
2023-05-14T18:30:46.687Z,99741.63
2023-05-14T18:35:52.058Z,99739.66
2023-05-14T18:40:58.376Z,99741.34
2023-05-14T18:46:03.097Z,99739.96
2023-05-14T18:51:08.360Z,99737.89
2023-05-14T18:56:12.572Z,99738.16
2023-05-14T19:01:16.914Z,99734.71
2023-05-14T19:06:21.840Z,99727.04
2023-05-14T19:11:27.049Z,99723.96
2023-05-14T19:16:35.160Z,99728.02
2023-05-14T19:21:39.482Z,99727.77
2023-05-14T19:26:44.183Z,99720.80
2023-05-14T19:31:48.223Z,99719.45
2023-05-14T19:36:52.838Z,99723.45
2023-05-14T19:41:57.539Z,99714.59
2023-05-14T19:47:02.188Z,99709.90
2023-05-14T19:52:07.730Z,99707.42
2023-05-14T19:57:12.458Z,99703.69
2023-05-14T20:02:19.800Z,99694.48
2023-05-14T20:07:25.810Z,99686.64
2023-05-14T20:12:31.368Z,99681.33
2023-05-14T20:17:36.629Z,99673.73
2023-05-14T20:22:40.785Z,99669.10
2023-05-14T20:27:46.576Z,99656.09
2023-05-14T20:32:52.950Z,99652.81
2023-05-14T20:37:57.043Z,99648.56
2023-05-14T20:43:02.473Z,99639.93
2023-05-14T20:48:10.464Z,99633.81
2023-05-14T20:53:14.914Z,99631.06
2023-05-14T20:58:19.658Z,99627.20
2023-05-14T21:03:23.689Z,99624.33
2023-05-14T21:08:29.284Z,99617.12
2023-05-14T21:13:33.335Z,99606.73
2023-05-14T21:18:37.575Z,99600.84
2023-05-14T21:23:42.461Z,99589.73
2023-05-14T21:28:46.653Z,99586.44
2023-05-14T21:33:51.458Z,99577.75
2023-05-14T21:38:56.064Z,99572.65
2023-05-14T21:44:00.379Z,99562.82
2023-05-14T21:49:03.910Z,99562.23
2023-05-14T21:54:08.207Z,99556.71
2023-05-14T21:59:12.598Z,99547.64
2023-05-14T22:04:17.273Z,99540.98
2023-05-14T22:09:21.471Z,99532.81
2023-05-14T22:14:26.631Z,99526.35
2023-05-14T22:19:31.884Z,99525.21
2023-05-14T22:24:36.182Z,99514.21
2023-05-14T22:29:39.897Z,99511.69
2023-05-14T22:34:43.816Z,99503.10
2023-05-14T22:39:48.971Z,99493.98
2023-05-14T22:44:53.867Z,99503.52
2023-05-14T22:50:00.125Z,99513.11
2023-05-14T22:55:04.540Z,99511.78
2023-05-14T23:00:09.897Z,99506.38
2023-05-14T23:05:15.301Z,99493.88
2023-05-14T23:10:19.386Z,99488.95
2023-05-14T23:15:23.131Z,99481.93
2023-05-14T23:20:27.787Z,99472.33
2023-05-14T23:25:33.849Z,99467.94
2023-05-14T23:30:37.866Z,99474.91
2023-05-14T23:35:42.296Z,99479.89
2023-05-14T23:40:46.130Z,99480.42
2023-05-14T23:45:50.176Z,99469.21
2023-05-14T23:50:54.639Z,99464.92
2023-05-14T23:56:00.714Z,99468.09
